sensor_id;sensor_type;location;lat;lon;timestamp;noise_LAeq;noise_LA_min;noise_LA_max;noise_LA01;noise_LA95
70245;Laerm;57637;49.272;8.590;2024-01-15T00:02:05;48.51;47.17;50.66;;
70245;Laerm;57637;49.272;8.590;2024-01-15T00:04:35;48.51;47.35;50.53;;
70245;Laerm;57637;49.272;8.590;2024-01-15T00:07:01;48.51;47.30;50.82;;
70245;Laerm;57637;49.272;8.590;2024-01-15T00:09:26;48.51;47.06;50.94;;
70245;Laerm;57637;49.272;8.590;2024-01-15T00:11:52;48.51;47.15;51.19;;
70245;Laerm;57637;49.272;8.590;2024-01-15T00:14:18;48.51;47.24;50.58;;
70245;Laerm;57637;49.272;8.590;2024-01-15T00:16:45;48.51;47.19;50.57;;
70245;Laerm;57637;49.272;8.590;2024-01-15T00:19:10;48.50;47.31;51.35;;
70245;Laerm;57637;49.272;8.590;2024-01-15T00:21:36;48.51;47.12;51.06;;
70245;Laerm;57637;49.272;8.590;2024-01-15T00:24:01;48.51;46.98;50.50;;
70245;Laerm;57637;49.272;8.590;2024-01-15T00:26:26;48.51;47.08;50.72;;
70245;Laerm;57637;49.272;8.590;2024-01-15T00:28:51;48.50;47.04;50.56;;
70245;Laerm;57637;49.272;8.590;2024-01-15T00:31:17;48.51;47.19;50.61;;
70245;Laerm;57637;49.272;8.590;2024-01-15T00:33:43;48.50;47.06;50.25;;
70245;Laerm;57637;49.272;8.590;2024-01-15T00:36:08;48.48;47.27;51.27;;
70245;Laerm;57637;49.272;8.590;2024-01-15T00:38:33;48.48;47.23;50.84;;
70245;Laerm;57637;49.272;8.590;2024-01-15T00:40:59;48.50;47.18;50.33;;
70245;Laerm;57637;49.272;8.590;2024-01-15T00:43:24;48.49;47.32;50.83;;
70245;Laerm;57637;49.272;8.590;2024-01-15T00:45:49;48.50;47.30;50.76;;
70245;Laerm;57637;49.272;8.590;2024-01-15T00:48:14;48.50;47.15;50.99;;
70245;Laerm;57637;49.272;8.590;2024-01-15T00:50:40;48.49;47.21;50.78;;
70245;Laerm;57637;49.272;8.590;2024-01-15T00:53:05;48.50;47.27;50.79;;
70245;Laerm;57637;49.272;8.590;2024-01-15T00:55:30;48.50;47.09;50.83;;
70245;Laerm;57637;49.272;8.590;2024-01-15T00:57:55;48.50;47.22;50.76;;
70245;Laerm;57637;49.272;8.590;2024-01-15T01:00:21;48.52;47.13;51.24;;
70245;Laerm;57637;49.272;8.590;2024-01-15T01:02:46;48.52;47.14;50.82;;
70245;Laerm;57637;49.272;8.590;2024-01-15T01:05:11;48.52;47.03;50.75;;
70245;Laerm;57637;49.272;8.590;2024-01-15T01:07:37;48.51;47.18;50.34;;
70245;Laerm;57637;49.272;8.590;2024-01-15T01:10:02;48.52;47.25;50.66;;
70245;Laerm;57637;49.272;8.590;2024-01-15T01:12:28;48.52;47.16;51.09;;
70245;Laerm;57637;49.272;8.590;2024-01-15T01:14:55;48.51;47.17;51.18;;
70245;Laerm;57637;49.272;8.590;2024-01-15T01:17:20;48.50;47.29;50.85;;
70245;Laerm;57637;49.272;8.590;2024-01-15T01:19:45;48.51;47.15;50.64;;
70245;Laerm;57637;49.272;8.590;2024-01-15T01:22:10;48.51;47.27;50.43;;
70245;Laerm;57637;49.272;8.590;2024-01-15T01:24:36;48.52;47.31;51.14;;
70245;Laerm;57637;49.272;8.590;2024-01-15T01:27:01;48.51;47.25;50.76;;
70245;Laerm;57637;49.272;8.590;2024-01-15T01:29:26;48.52;46.99;50.59;;
70245;Laerm;57637;49.272;8.590;2024-01-15T01:31:52;48.50;47.29;50.69;;
70245;Laerm;57637;49.272;8.590;2024-01-15T01:34:17;48.50;47.21;50.44;;
70245;Laerm;57637;49.272;8.590;2024-01-15T01:36:43;48.51;47.28;50.69;;
70245;Laerm;57637;49.272;8.590;2024-01-15T01:39:08;48.51;47.26;51.00;;
70245;Laerm;57637;49.272;8.590;2024-01-15T01:41:34;48.52;47.29;50.87;;
70245;Laerm;57637;49.272;8.590;2024-01-15T01:43:59;48.53;47.29;50.58;;
70245;Laerm;57637;49.272;8.590;2024-01-15T01:46:27;48.52;47.17;50.70;;
70245;Laerm;57637;49.272;8.590;2024-01-15T01:48:53;48.50;47.19;50.77;;
70245;Laerm;57637;49.272;8.590;2024-01-15T01:51:20;48.50;47.19;50.61;;
70245;Laerm;57637;49.272;8.590;2024-01-15T01:53:46;48.50;47.24;50.68;;
70245;Laerm;57637;49.272;8.590;2024-01-15T01:56:13;48.50;47.27;50.68;;
70245;Laerm;57637;49.272;8.590;2024-01-15T01:58:39;48.50;47.06;50.70;;
70245;Laerm;57637;49.272;8.590;2024-01-15T02:01:04;48.50;47.21;51.01;;
70245;Laerm;57637;49.272;8.590;2024-01-15T02:03:30;48.50;47.24;50.72;;
70245;Laerm;57637;49.272;8.590;2024-01-15T02:05:56;48.51;47.13;50.96;;
70245;Laerm;57637;49.272;8.590;2024-01-15T02:08:22;48.51;47.17;50.65;;
70245;Laerm;57637;49.272;8.590;2024-01-15T02:10:47;48.48;47.11;50.45;;
70245;Laerm;57637;49.272;8.590;2024-01-15T02:13:13;48.51;46.96;50.74;;
70245;Laerm;57637;49.272;8.590;2024-01-15T02:15:38;48.51;47.09;50.58;;
70245;Laerm;57637;49.272;8.590;2024-01-15T02:18:05;48.50;47.20;50.58;;
70245;Laerm;57637;49.272;8.590;2024-01-15T02:20:31;48.50;47.25;50.51;;
70245;Laerm;57637;49.272;8.590;2024-01-15T02:23:12;48.50;46.98;50.94;;
70245;Laerm;57637;49.272;8.590;2024-01-15T02:25:45;48.49;47.10;50.86;;
70245;Laerm;57637;49.272;8.590;2024-01-15T02:28:13;48.49;47.12;50.94;;
70245;Laerm;57637;49.272;8.590;2024-01-15T02:30:40;48.49;47.06;50.98;;
70245;Laerm;57637;49.272;8.590;2024-01-15T02:33:07;48.49;47.24;50.84;;
70245;Laerm;57637;49.272;8.590;2024-01-15T02:35:32;48.50;47.18;50.89;;
70245;Laerm;57637;49.272;8.590;2024-01-15T02:37:58;48.49;47.24;50.88;;
70245;Laerm;57637;49.272;8.590;2024-01-15T02:40:23;48.49;47.23;50.73;;
70245;Laerm;57637;49.272;8.590;2024-01-15T02:42:49;48.50;47.19;50.70;;
70245;Laerm;57637;49.272;8.590;2024-01-15T02:45:14;48.49;47.24;51.06;;
70245;Laerm;57637;49.272;8.590;2024-01-15T02:47:39;48.50;47.08;50.82;;
70245;Laerm;57637;49.272;8.590;2024-01-15T02:50:05;48.50;47.23;50.92;;
70245;Laerm;57637;49.272;8.590;2024-01-15T02:52:30;48.52;47.39;50.68;;
70245;Laerm;57637;49.272;8.590;2024-01-15T02:54:56;48.51;47.11;50.92;;
70245;Laerm;57637;49.272;8.590;2024-01-15T02:57:21;48.50;47.19;50.56;;
70245;Laerm;57637;49.272;8.590;2024-01-15T02:59:46;48.50;47.19;50.82;;
70245;Laerm;57637;49.272;8.590;2024-01-15T03:02:11;48.52;47.13;50.97;;
70245;Laerm;57637;49.272;8.590;2024-01-15T03:04:37;48.51;47.19;51.37;;
70245;Laerm;57637;49.272;8.590;2024-01-15T03:07:02;48.50;46.83;50.90;;
70245;Laerm;57637;49.272;8.590;2024-01-15T03:09:27;48.50;47.20;50.61;;
70245;Laerm;57637;49.272;8.590;2024-01-15T03:11:53;48.49;46.87;50.77;;
70245;Laerm;57637;49.272;8.590;2024-01-15T03:14:18;48.51;47.13;50.90;;
70245;Laerm;57637;49.272;8.590;2024-01-15T03:16:43;48.51;47.27;50.94;;
70245;Laerm;57637;49.272;8.590;2024-01-15T03:19:09;48.50;47.06;50.84;;
70245;Laerm;57637;49.272;8.590;2024-01-15T03:21:34;48.50;47.28;50.72;;
70245;Laerm;57637;49.272;8.590;2024-01-15T03:23:59;48.49;47.02;50.54;;
70245;Laerm;57637;49.272;8.590;2024-01-15T03:26:24;48.50;47.29;50.82;;
70245;Laerm;57637;49.272;8.590;2024-01-15T03:28:50;48.50;47.11;50.56;;
70245;Laerm;57637;49.272;8.590;2024-01-15T03:31:15;48.49;47.12;50.52;;
70245;Laerm;57637;49.272;8.590;2024-01-15T03:33:40;48.50;47.31;50.55;;
70245;Laerm;57637;49.272;8.590;2024-01-15T03:36:06;48.50;47.15;50.61;;
70245;Laerm;57637;49.272;8.590;2024-01-15T03:38:32;48.49;47.12;50.55;;
70245;Laerm;57637;49.272;8.590;2024-01-15T03:40:57;48.49;47.04;50.50;;
70245;Laerm;57637;49.272;8.590;2024-01-15T03:43:22;48.48;47.20;50.75;;
70245;Laerm;57637;49.272;8.590;2024-01-15T03:45:47;48.49;47.10;51.09;;
70245;Laerm;57637;49.272;8.590;2024-01-15T03:48:13;48.51;47.10;50.40;;
70245;Laerm;57637;49.272;8.590;2024-01-15T03:50:38;48.50;47.26;50.73;;
70245;Laerm;57637;49.272;8.590;2024-01-15T03:53:03;48.50;47.28;50.72;;
70245;Laerm;57637;49.272;8.590;2024-01-15T03:55:29;48.49;47.33;50.38;;
70245;Laerm;57637;49.272;8.590;2024-01-15T03:57:54;48.48;47.29;50.47;;
70245;Laerm;57637;49.272;8.590;2024-01-15T04:00:19;48.48;47.31;50.32;;
70245;Laerm;57637;49.272;8.590;2024-01-15T04:02:45;48.49;47.19;50.86;;
70245;Laerm;57637;49.272;8.590;2024-01-15T04:05:10;48.50;47.24;50.66;;
70245;Laerm;57637;49.272;8.590;2024-01-15T04:07:35;48.50;47.21;50.66;;
70245;Laerm;57637;49.272;8.590;2024-01-15T04:10:01;48.50;47.33;50.55;;
70245;Laerm;57637;49.272;8.590;2024-01-15T04:12:26;48.50;47.38;51.02;;
70245;Laerm;57637;49.272;8.590;2024-01-15T04:14:51;48.50;47.22;51.06;;
70245;Laerm;57637;49.272;8.590;2024-01-15T04:17:17;48.50;47.39;50.73;;
70245;Laerm;57637;49.272;8.590;2024-01-15T04:19:45;48.50;47.19;50.88;;
70245;Laerm;57637;49.272;8.590;2024-01-15T04:22:11;48.50;47.14;51.32;;
70245;Laerm;57637;49.272;8.590;2024-01-15T04:24:36;48.51;47.33;50.90;;
70245;Laerm;57637;49.272;8.590;2024-01-15T04:27:02;48.51;47.20;50.79;;
70245;Laerm;57637;49.272;8.590;2024-01-15T04:29:27;48.50;47.15;50.78;;
70245;Laerm;57637;49.272;8.590;2024-01-15T04:31:53;48.50;47.34;50.75;;
70245;Laerm;57637;49.272;8.590;2024-01-15T04:34:18;48.49;47.15;50.89;;
70245;Laerm;57637;49.272;8.590;2024-01-15T04:36:43;48.50;47.24;50.71;;
70245;Laerm;57637;49.272;8.590;2024-01-15T04:39:10;48.50;47.25;50.77;;
70245;Laerm;57637;49.272;8.590;2024-01-15T04:41:36;48.48;47.18;51.44;;
70245;Laerm;57637;49.272;8.590;2024-01-15T04:44:02;48.49;47.17;50.96;;
70245;Laerm;57637;49.272;8.590;2024-01-15T04:46:27;48.50;47.35;50.96;;
70245;Laerm;57637;49.272;8.590;2024-01-15T04:48:52;48.51;46.93;50.81;;
70245;Laerm;57637;49.272;8.590;2024-01-15T04:51:18;48.50;47.04;50.77;;
70245;Laerm;57637;49.272;8.590;2024-01-15T04:53:44;48.50;47.25;50.63;;
70245;Laerm;57637;49.272;8.590;2024-01-15T04:56:09;48.50;47.26;50.74;;
70245;Laerm;57637;49.272;8.590;2024-01-15T04:58:34;48.50;47.20;50.78;;
70245;Laerm;57637;49.272;8.590;2024-01-15T05:01:00;48.49;47.37;50.67;;
70245;Laerm;57637;49.272;8.590;2024-01-15T05:03:25;48.50;47.31;51.03;;
70245;Laerm;57637;49.272;8.590;2024-01-15T05:05:50;48.49;47.32;50.65;;
70245;Laerm;57637;49.272;8.590;2024-01-15T05:08:15;48.50;47.15;50.64;;
70245;Laerm;57637;49.272;8.590;2024-01-15T05:10:41;48.50;47.06;51.18;;
70245;Laerm;57637;49.272;8.590;2024-01-15T05:13:06;48.50;47.34;50.87;;
70245;Laerm;57637;49.272;8.590;2024-01-15T05:15:31;48.49;47.20;51.26;;
70245;Laerm;57637;49.272;8.590;2024-01-15T05:17:57;48.51;47.18;50.95;;
70245;Laerm;57637;49.272;8.590;2024-01-15T05:20:22;48.49;47.20;50.68;;
70245;Laerm;57637;49.272;8.590;2024-01-15T05:22:47;48.49;47.38;50.49;;
70245;Laerm;57637;49.272;8.590;2024-01-15T05:25:12;48.50;47.28;50.77;;
70245;Laerm;57637;49.272;8.590;2024-01-15T05:27:38;48.50;46.96;50.98;;
70245;Laerm;57637;49.272;8.590;2024-01-15T05:30:03;48.49;47.12;50.53;;
70245;Laerm;57637;49.272;8.590;2024-01-15T05:32:29;48.49;47.12;50.85;;
70245;Laerm;57637;49.272;8.590;2024-01-15T05:34:54;48.49;47.22;50.75;;
70245;Laerm;57637;49.272;8.590;2024-01-15T05:37:20;48.49;47.11;51.03;;
70245;Laerm;57637;49.272;8.590;2024-01-15T05:39:45;48.48;47.24;50.60;;
70245;Laerm;57637;49.272;8.590;2024-01-15T05:42:10;48.49;47.21;50.59;;
70245;Laerm;57637;49.272;8.590;2024-01-15T05:44:36;48.48;47.24;50.59;;
70245;Laerm;57637;49.272;8.590;2024-01-15T05:47:01;48.49;47.29;50.69;;
70245;Laerm;57637;49.272;8.590;2024-01-15T05:49:26;48.48;46.97;50.68;;
70245;Laerm;57637;49.272;8.590;2024-01-15T05:51:51;48.48;47.13;50.79;;
70245;Laerm;57637;49.272;8.590;2024-01-15T05:54:18;48.48;47.26;50.56;;
70245;Laerm;57637;49.272;8.590;2024-01-15T05:56:43;48.48;47.13;50.48;;
70245;Laerm;57637;49.272;8.590;2024-01-15T05:59:09;48.49;47.19;50.90;;
70245;Laerm;57637;49.272;8.590;2024-01-15T06:01:34;48.47;47.18;50.87;;
70245;Laerm;57637;49.272;8.590;2024-01-15T06:03:59;48.48;47.15;50.78;;
70245;Laerm;57637;49.272;8.590;2024-01-15T06:06:25;48.48;47.30;50.50;;
70245;Laerm;57637;49.272;8.590;2024-01-15T06:08:50;48.47;47.19;50.88;;
70245;Laerm;57637;49.272;8.590;2024-01-15T06:11:15;48.46;47.30;50.72;;
70245;Laerm;57637;49.272;8.590;2024-01-15T06:13:40;48.47;47.27;50.72;;
70245;Laerm;57637;49.272;8.590;2024-01-15T06:16:15;48.48;47.29;50.82;;
70245;Laerm;57637;49.272;8.590;2024-01-15T06:18:45;48.49;47.22;50.52;;
70245;Laerm;57637;49.272;8.590;2024-01-15T06:21:10;48.49;47.18;50.79;;
70245;Laerm;57637;49.272;8.590;2024-01-15T06:23:38;48.49;47.18;50.70;;
70245;Laerm;57637;49.272;8.590;2024-01-15T06:26:03;48.49;47.11;50.81;;
70245;Laerm;57637;49.272;8.590;2024-01-15T06:28:29;48.48;47.39;50.55;;
70245;Laerm;57637;49.272;8.590;2024-01-15T06:30:54;48.49;47.20;50.61;;
70245;Laerm;57637;49.272;8.590;2024-01-15T06:33:19;48.49;47.13;50.88;;
70245;Laerm;57637;49.272;8.590;2024-01-15T06:35:45;48.50;47.33;50.70;;
70245;Laerm;57637;49.272;8.590;2024-01-15T06:38:10;48.50;47.15;50.67;;
70245;Laerm;57637;49.272;8.590;2024-01-15T06:40:35;48.49;47.32;50.47;;
70245;Laerm;57637;49.272;8.590;2024-01-15T06:43:01;48.49;47.13;50.95;;
70245;Laerm;57637;49.272;8.590;2024-01-15T06:45:26;48.49;47.14;50.64;;
70245;Laerm;57637;49.272;8.590;2024-01-15T06:47:51;48.49;47.21;50.69;;
70245;Laerm;57637;49.272;8.590;2024-01-15T06:50:16;48.50;47.19;51.32;;
70245;Laerm;57637;49.272;8.590;2024-01-15T06:52:42;48.50;47.23;50.99;;
70245;Laerm;57637;49.272;8.590;2024-01-15T06:55:07;48.49;47.33;50.77;;
70245;Laerm;57637;49.272;8.590;2024-01-15T06:57:33;48.49;47.17;51.19;;
70245;Laerm;57637;49.272;8.590;2024-01-15T06:59:58;48.49;47.02;50.64;;
70245;Laerm;57637;49.272;8.590;2024-01-15T07:02:23;48.49;47.02;50.80;;
70245;Laerm;57637;49.272;8.590;2024-01-15T07:04:49;48.50;47.35;50.60;;
70245;Laerm;57637;49.272;8.590;2024-01-15T07:07:14;48.49;47.32;50.70;;
70245;Laerm;57637;49.272;8.590;2024-01-15T07:09:40;48.50;47.20;50.66;;
70245;Laerm;57637;49.272;8.590;2024-01-15T07:12:06;48.49;47.19;50.66;;
70245;Laerm;57637;49.272;8.590;2024-01-15T07:14:31;48.49;46.98;50.71;;
70245;Laerm;57637;49.272;8.590;2024-01-15T07:16:56;48.49;47.22;51.06;;
70245;Laerm;57637;49.272;8.590;2024-01-15T07:19:22;48.50;47.18;51.17;;
70245;Laerm;57637;49.272;8.590;2024-01-15T07:21:47;48.50;47.17;50.88;;
70245;Laerm;57637;49.272;8.590;2024-01-15T07:24:12;48.50;47.24;51.25;;
70245;Laerm;57637;49.272;8.590;2024-01-15T07:26:38;48.49;47.16;50.90;;
70245;Laerm;57637;49.272;8.590;2024-01-15T07:29:04;48.48;47.30;50.98;;
70245;Laerm;57637;49.272;8.590;2024-01-15T07:31:29;48.49;47.18;50.89;;
70245;Laerm;57637;49.272;8.590;2024-01-15T07:33:54;48.48;47.05;51.15;;
70245;Laerm;57637;49.272;8.590;2024-01-15T07:36:19;48.49;47.25;51.12;;
70245;Laerm;57637;49.272;8.590;2024-01-15T07:38:45;48.48;47.03;50.92;;
70245;Laerm;57637;49.272;8.590;2024-01-15T07:41:12;48.48;47.20;50.70;;
70245;Laerm;57637;49.272;8.590;2024-01-15T07:43:38;48.47;47.05;50.75;;
70245;Laerm;57637;49.272;8.590;2024-01-15T07:46:04;48.48;47.03;51.23;;
70245;Laerm;57637;49.272;8.590;2024-01-15T07:48:29;48.48;46.67;50.93;;
70245;Laerm;57637;49.272;8.590;2024-01-15T07:50:54;48.48;47.16;51.05;;
70245;Laerm;57637;49.272;8.590;2024-01-15T07:53:19;48.47;47.19;50.94;;
70245;Laerm;57637;49.272;8.590;2024-01-15T07:55:45;48.46;47.23;50.52;;
70245;Laerm;57637;49.272;8.590;2024-01-15T07:58:11;48.48;47.29;51.93;;
70245;Laerm;57637;49.272;8.590;2024-01-15T08:00:36;48.48;47.22;50.86;;
70245;Laerm;57637;49.272;8.590;2024-01-15T08:03:02;48.48;47.07;50.95;;
70245;Laerm;57637;49.272;8.590;2024-01-15T08:05:28;48.50;47.25;50.82;;
70245;Laerm;57637;49.272;8.590;2024-01-15T08:07:53;48.48;47.02;50.86;;
70245;Laerm;57637;49.272;8.590;2024-01-15T08:10:18;48.48;46.73;50.86;;
70245;Laerm;57637;49.272;8.590;2024-01-15T08:12:44;48.47;47.14;50.58;;
70245;Laerm;57637;49.272;8.590;2024-01-15T08:15:09;48.48;47.16;51.05;;
70245;Laerm;57637;49.272;8.590;2024-01-15T08:17:35;48.47;47.24;50.79;;
70245;Laerm;57637;49.272;8.590;2024-01-15T08:20:00;48.47;47.19;51.09;;
70245;Laerm;57637;49.272;8.590;2024-01-15T08:22:26;48.45;46.98;51.01;;
70245;Laerm;57637;49.272;8.590;2024-01-15T08:24:51;48.46;47.26;51.41;;
70245;Laerm;57637;49.272;8.590;2024-01-15T08:27:17;48.47;47.27;50.86;;
70245;Laerm;57637;49.272;8.590;2024-01-15T08:29:42;48.48;47.11;50.67;;
70245;Laerm;57637;49.272;8.590;2024-01-15T08:32:08;48.47;47.23;50.63;;
70245;Laerm;57637;49.272;8.590;2024-01-15T08:34:39;48.47;47.03;50.61;;
70245;Laerm;57637;49.272;8.590;2024-01-15T08:37:04;48.47;47.21;50.94;;
70245;Laerm;57637;49.272;8.590;2024-01-15T08:39:29;48.49;47.02;50.96;;
70245;Laerm;57637;49.272;8.590;2024-01-15T08:41:54;48.48;47.19;50.78;;
70245;Laerm;57637;49.272;8.590;2024-01-15T08:44:20;48.47;47.27;51.62;;
70245;Laerm;57637;49.272;8.590;2024-01-15T08:46:45;48.46;47.08;50.96;;
70245;Laerm;57637;49.272;8.590;2024-01-15T08:49:10;48.47;47.09;51.17;;
70245;Laerm;57637;49.272;8.590;2024-01-15T08:51:36;48.49;47.26;51.04;;
70245;Laerm;57637;49.272;8.590;2024-01-15T08:54:01;48.48;46.99;51.04;;
70245;Laerm;57637;49.272;8.590;2024-01-15T08:56:27;48.47;47.23;50.96;;
70245;Laerm;57637;49.272;8.590;2024-01-15T08:58:52;48.46;47.35;50.98;;
70245;Laerm;57637;49.272;8.590;2024-01-15T09:01:17;48.46;46.76;51.01;;
70245;Laerm;57637;49.272;8.590;2024-01-15T09:03:44;48.46;47.21;50.93;;
70245;Laerm;57637;49.272;8.590;2024-01-15T09:06:10;48.47;47.11;50.77;;
70245;Laerm;57637;49.272;8.590;2024-01-15T09:08:35;48.47;47.13;50.85;;
70245;Laerm;57637;49.272;8.590;2024-01-15T09:11:01;48.47;47.25;50.95;;
70245;Laerm;57637;49.272;8.590;2024-01-15T09:13:28;48.46;47.29;50.94;;
70245;Laerm;57637;49.272;8.590;2024-01-15T09:15:53;48.47;47.23;50.93;;
70245;Laerm;57637;49.272;8.590;2024-01-15T09:18:18;48.46;47.06;50.76;;
70245;Laerm;57637;49.272;8.590;2024-01-15T09:20:44;48.48;47.25;51.11;;
70245;Laerm;57637;49.272;8.590;2024-01-15T09:23:09;48.49;47.26;50.93;;
70245;Laerm;57637;49.272;8.590;2024-01-15T09:25:34;48.48;47.24;51.07;;
70245;Laerm;57637;49.272;8.590;2024-01-15T09:27:59;48.47;46.99;50.96;;
70245;Laerm;57637;49.272;8.590;2024-01-15T09:30:25;48.47;47.01;50.90;;
70245;Laerm;57637;49.272;8.590;2024-01-15T09:32:50;48.47;47.21;50.89;;
70245;Laerm;57637;49.272;8.590;2024-01-15T09:35:15;48.47;47.22;51.28;;
70245;Laerm;57637;49.272;8.590;2024-01-15T09:37:41;48.46;47.30;50.76;;
70245;Laerm;57637;49.272;8.590;2024-01-15T09:40:08;48.46;47.24;51.14;;
70245;Laerm;57637;49.272;8.590;2024-01-15T09:42:34;48.45;47.08;50.82;;
70245;Laerm;57637;49.272;8.590;2024-01-15T09:45:00;48.46;47.21;51.53;;
70245;Laerm;57637;49.272;8.590;2024-01-15T09:47:28;48.46;47.13;51.15;;
70245;Laerm;57637;49.272;8.590;2024-01-15T09:49:54;48.46;47.18;50.79;;
70245;Laerm;57637;49.272;8.590;2024-01-15T09:52:19;48.44;47.10;50.74;;
70245;Laerm;57637;49.272;8.590;2024-01-15T09:54:46;48.45;47.23;50.88;;
70245;Laerm;57637;49.272;8.590;2024-01-15T09:57:12;48.44;46.99;50.88;;
70245;Laerm;57637;49.272;8.590;2024-01-15T09:59:38;48.46;47.22;50.97;;
70245;Laerm;57637;49.272;8.590;2024-01-15T10:02:05;48.48;47.15;50.96;;
70245;Laerm;57637;49.272;8.590;2024-01-15T10:04:31;48.47;47.26;51.40;;
70245;Laerm;57637;49.272;8.590;2024-01-15T10:06:57;48.45;47.18;50.83;;
70245;Laerm;57637;49.272;8.590;2024-01-15T10:09:25;48.47;47.15;51.01;;
70245;Laerm;57637;49.272;8.590;2024-01-15T10:11:51;48.46;47.17;51.97;;
70245;Laerm;57637;49.272;8.590;2024-01-15T10:14:16;48.45;46.94;51.45;;
70245;Laerm;57637;49.272;8.590;2024-01-15T10:16:42;48.47;47.23;51.01;;
70245;Laerm;57637;49.272;8.590;2024-01-15T10:19:11;48.49;47.19;50.74;;
70245;Laerm;57637;49.272;8.590;2024-01-15T10:21:36;48.47;47.27;50.84;;
70245;Laerm;57637;49.272;8.590;2024-01-15T10:24:03;48.49;47.24;51.20;;
70245;Laerm;57637;49.272;8.590;2024-01-15T10:26:29;48.48;47.29;50.76;;
70245;Laerm;57637;49.272;8.590;2024-01-15T10:28:55;48.47;47.21;51.29;;
70245;Laerm;57637;49.272;8.590;2024-01-15T10:31:21;48.48;47.12;50.86;;
70245;Laerm;57637;49.272;8.590;2024-01-15T10:33:48;48.49;47.16;50.78;;
70245;Laerm;57637;49.272;8.590;2024-01-15T10:36:14;48.50;47.24;50.54;;
70245;Laerm;57637;49.272;8.590;2024-01-15T10:38:42;48.48;47.18;50.69;;
70245;Laerm;57637;49.272;8.590;2024-01-15T10:41:08;48.45;47.16;51.01;;
70245;Laerm;57637;49.272;8.590;2024-01-15T10:43:33;48.44;47.07;50.46;;
70245;Laerm;57637;49.272;8.590;2024-01-15T10:45:59;48.42;47.12;50.59;;
70245;Laerm;57637;49.272;8.590;2024-01-15T10:48:24;48.43;47.19;50.58;;
70245;Laerm;57637;49.272;8.590;2024-01-15T10:50:51;48.46;46.99;50.76;;
70245;Laerm;57637;49.272;8.590;2024-01-15T10:53:17;48.46;47.17;50.39;;
70245;Laerm;57637;49.272;8.590;2024-01-15T10:55:43;48.47;47.14;50.38;;
70245;Laerm;57637;49.272;8.590;2024-01-15T10:58:09;48.45;47.13;50.87;;
70245;Laerm;57637;49.272;8.590;2024-01-15T11:00:35;48.44;47.07;50.54;;
70245;Laerm;57637;49.272;8.590;2024-01-15T11:03:03;48.45;47.17;51.14;;
70245;Laerm;57637;49.272;8.590;2024-01-15T11:05:34;48.46;47.00;51.03;;
70245;Laerm;57637;49.272;8.590;2024-01-15T11:08:01;48.46;46.81;50.84;;
70245;Laerm;57637;49.272;8.590;2024-01-15T11:10:44;48.47;47.04;51.01;;
70245;Laerm;57637;49.272;8.590;2024-01-15T11:16:02;48.45;47.00;50.81;;
70245;Laerm;57637;49.272;8.590;2024-01-15T11:18:30;48.46;47.01;51.17;;
70245;Laerm;57637;49.272;8.590;2024-01-15T11:23:47;48.47;47.05;50.82;;
70245;Laerm;57637;49.272;8.590;2024-01-15T11:28:59;48.49;47.15;51.18;;
70245;Laerm;57637;49.272;8.590;2024-01-15T11:34:09;48.47;47.13;50.84;;
70245;Laerm;57637;49.272;8.590;2024-01-15T11:41:57;48.50;47.20;50.51;;
70245;Laerm;57637;49.272;8.590;2024-01-15T11:44:23;48.46;47.21;50.65;;
70245;Laerm;57637;49.272;8.590;2024-01-15T11:47:05;48.45;47.03;50.82;;
70245;Laerm;57637;49.272;8.590;2024-01-15T11:49:59;48.46;47.16;50.86;;
70245;Laerm;57637;49.272;8.590;2024-01-15T11:52:27;48.46;47.20;50.52;;
70245;Laerm;57637;49.272;8.590;2024-01-15T11:55:11;48.47;47.02;50.56;;
70245;Laerm;57637;49.272;8.590;2024-01-15T11:57:41;48.46;47.05;50.68;;
70245;Laerm;57637;49.272;8.590;2024-01-15T12:00:09;48.46;47.25;50.89;;
70245;Laerm;57637;49.272;8.590;2024-01-15T12:02:35;48.43;47.32;50.63;;
70245;Laerm;57637;49.272;8.590;2024-01-15T12:05:01;48.43;47.05;50.85;;
70245;Laerm;57637;49.272;8.590;2024-01-15T12:07:26;48.43;47.07;50.93;;
70245;Laerm;57637;49.272;8.590;2024-01-15T12:09:51;48.43;46.89;51.11;;
70245;Laerm;57637;49.272;8.590;2024-01-15T12:15:05;48.43;47.04;50.60;;
70245;Laerm;57637;49.272;8.590;2024-01-15T12:17:31;48.43;47.23;51.06;;
70245;Laerm;57637;49.272;8.590;2024-01-15T12:19:57;48.43;47.11;50.61;;
70245;Laerm;57637;49.272;8.590;2024-01-15T12:22:22;48.43;47.13;50.95;;
70245;Laerm;57637;49.272;8.590;2024-01-15T12:24:47;48.44;47.05;50.75;;
70245;Laerm;57637;49.272;8.590;2024-01-15T12:27:12;48.43;46.88;51.12;;
70245;Laerm;57637;49.272;8.590;2024-01-15T12:29:38;48.42;47.09;50.62;;
70245;Laerm;57637;49.272;8.590;2024-01-15T12:32:05;48.40;47.21;51.08;;
70245;Laerm;57637;49.272;8.590;2024-01-15T12:34:30;48.41;47.10;50.83;;
70245;Laerm;57637;49.272;8.590;2024-01-15T12:36:57;48.43;47.14;50.54;;
70245;Laerm;57637;49.272;8.590;2024-01-15T12:39:22;48.41;47.00;50.73;;
70245;Laerm;57637;49.272;8.590;2024-01-15T12:41:49;48.40;47.24;50.92;;
70245;Laerm;57637;49.272;8.590;2024-01-15T12:44:14;48.40;47.05;50.82;;
70245;Laerm;57637;49.272;8.590;2024-01-15T12:46:39;48.40;46.98;50.80;;
70245;Laerm;57637;49.272;8.590;2024-01-15T12:49:05;48.40;47.17;50.67;;
70245;Laerm;57637;49.272;8.590;2024-01-15T12:51:30;48.42;47.12;50.72;;
70245;Laerm;57637;49.272;8.590;2024-01-15T12:53:59;48.44;47.25;50.84;;
70245;Laerm;57637;49.272;8.590;2024-01-15T12:56:24;48.45;47.16;51.34;;
70245;Laerm;57637;49.272;8.590;2024-01-15T12:58:49;48.43;47.04;50.82;;
70245;Laerm;57637;49.272;8.590;2024-01-15T13:01:15;48.44;47.16;51.07;;
70245;Laerm;57637;49.272;8.590;2024-01-15T13:03:40;48.44;47.11;50.72;;
70245;Laerm;57637;49.272;8.590;2024-01-15T13:06:05;48.41;47.06;51.30;;
70245;Laerm;57637;49.272;8.590;2024-01-15T13:08:31;48.41;47.19;50.69;;
70245;Laerm;57637;49.272;8.590;2024-01-15T13:10:57;48.40;47.14;51.01;;
70245;Laerm;57637;49.272;8.590;2024-01-15T13:13:23;48.41;47.05;51.28;;
70245;Laerm;57637;49.272;8.590;2024-01-15T13:15:48;48.43;47.21;50.77;;
70245;Laerm;57637;49.272;8.590;2024-01-15T13:18:13;48.43;47.10;50.99;;
70245;Laerm;57637;49.272;8.590;2024-01-15T13:20:39;48.42;46.88;51.19;;
70245;Laerm;57637;49.272;8.590;2024-01-15T13:23:04;48.40;47.15;51.05;;
70245;Laerm;57637;49.272;8.590;2024-01-15T13:25:29;48.42;47.15;51.73;;
70245;Laerm;57637;49.272;8.590;2024-01-15T13:27:55;48.41;47.31;50.78;;
70245;Laerm;57637;49.272;8.590;2024-01-15T13:30:20;48.41;47.16;50.63;;
70245;Laerm;57637;49.272;8.590;2024-01-15T13:32:45;48.43;47.14;51.21;;
70245;Laerm;57637;49.272;8.590;2024-01-15T13:35:12;48.43;47.26;51.15;;
70245;Laerm;57637;49.272;8.590;2024-01-15T13:37:38;48.43;47.05;50.80;;
70245;Laerm;57637;49.272;8.590;2024-01-15T13:40:07;48.42;47.10;50.90;;
70245;Laerm;57637;49.272;8.590;2024-01-15T13:42:34;48.42;47.04;50.99;;
70245;Laerm;57637;49.272;8.590;2024-01-15T13:44:59;48.42;47.12;50.90;;
70245;Laerm;57637;49.272;8.590;2024-01-15T13:47:25;48.41;47.10;50.85;;
70245;Laerm;57637;49.272;8.590;2024-01-15T13:49:50;48.41;47.00;50.95;;
70245;Laerm;57637;49.272;8.590;2024-01-15T13:52:16;48.43;47.15;50.92;;
70245;Laerm;57637;49.272;8.590;2024-01-15T13:54:41;48.42;47.06;50.99;;
70245;Laerm;57637;49.272;8.590;2024-01-15T13:57:07;48.42;47.06;51.03;;